createdAt,value
2022-09-01T00:00:16.538Z,29.10
2022-09-01T00:02:46.183Z,32.85
2022-09-01T00:05:15.506Z,34.45
2022-09-01T00:07:46.335Z,25.67
2022-09-01T00:10:15.964Z,35.80
2022-09-01T00:12:46.473Z,34.20
2022-09-01T00:15:16.345Z,29.35
2022-09-01T00:17:45.637Z,35.80
2022-09-01T00:20:19.588Z,29.38
2022-09-01T00:22:50.230Z,37.65
2022-09-01T00:25:21.216Z,36.63
2022-09-01T00:27:51.071Z,25.38
2022-09-01T00:30:21.918Z,38.58
2022-09-01T00:32:51.216Z,38.22
2022-09-01T00:35:21.351Z,29.48
2022-09-01T00:37:50.649Z,20.77
2022-09-01T00:40:21.404Z,19.95
2022-09-01T00:42:50.682Z,32.20
2022-09-01T00:45:23.153Z,25.70
2022-09-01T00:47:52.443Z,27.45
2022-09-01T00:50:23.076Z,22.98
2022-09-01T00:52:56.131Z,21.80
2022-09-01T00:55:32.638Z,22.95
2022-09-01T00:58:04.550Z,34.38
2022-09-01T01:00:42.446Z,26.27
2022-09-01T01:03:13.166Z,28.65
2022-09-01T01:05:55.518Z,33.88
2022-09-01T01:08:51.252Z,34.08
2022-09-01T01:11:21.002Z,42.45
2022-09-01T01:13:57.764Z,25.73
2022-09-01T01:16:29.734Z,18.40
2022-09-01T01:18:59.847Z,35.50
2022-09-01T01:22:02.657Z,32.40
2022-09-01T01:24:36.739Z,23.90
2022-09-01T01:27:06.263Z,42.92
2022-09-01T01:29:41.210Z,28.55
2022-09-01T01:32:14.068Z,35.28
2022-09-01T01:34:48.628Z,30.02
2022-09-01T01:37:19.756Z,34.78
2022-09-01T01:39:49.615Z,42.50
2022-09-01T01:42:20.313Z,58.20
2022-09-01T01:44:51.117Z,47.42
2022-09-01T01:47:21.359Z,43.05
2022-09-01T01:49:50.572Z,39.63
2022-09-01T01:52:21.887Z,37.00
2022-09-01T01:54:55.362Z,35.92
2022-09-01T01:57:24.772Z,34.22
2022-09-01T01:59:55.188Z,37.63
2022-09-01T02:02:24.693Z,36.13
2022-09-01T02:04:56.014Z,31.80
2022-09-01T02:07:25.757Z,45.45
2022-09-01T02:09:59.362Z,36.17
2022-09-01T02:12:28.957Z,41.22
2022-09-01T02:15:01.702Z,36.92
2022-09-01T02:17:31.026Z,64.07
2022-09-01T02:20:00.332Z,45.40
2022-09-01T02:22:29.548Z,47.67
2022-09-01T02:24:59.218Z,59.67
2022-09-01T02:27:30.529Z,50.47
2022-09-01T02:30:03.133Z,70.82
2022-09-01T02:32:33.232Z,44.53
2022-09-01T02:35:02.582Z,46.70
2022-09-01T02:37:31.908Z,62.55
2022-09-01T02:40:01.575Z,49.05
2022-09-01T02:42:31.399Z,64.32
2022-09-01T02:45:02.663Z,69.10
2022-09-01T02:50:04.746Z,67.90
2022-09-01T02:52:37.093Z,74.03
2022-09-01T02:55:06.992Z,76.80
2022-09-01T02:57:36.858Z,78.30
2022-09-01T03:00:21.637Z,57.83
2022-09-01T03:02:55.175Z,65.65
2022-09-01T03:05:28.217Z,70.18
2022-09-01T03:08:00.858Z,79.97
2022-09-01T03:10:34.505Z,64.70
2022-09-01T03:13:13.765Z,83.53
2022-09-01T03:15:44.543Z,63.80
2022-09-01T03:18:15.899Z,51.47
2022-09-01T03:20:47.490Z,59.05
2022-09-01T03:23:20.021Z,53.28
2022-09-01T03:25:50.405Z,41.17
2022-09-01T03:28:20.038Z,51.88
2022-09-01T03:30:52.220Z,50.70
2022-09-01T03:35:52.592Z,51.05
2022-09-01T03:38:24.032Z,44.40
2022-09-01T03:41:02.993Z,44.45
2022-09-01T03:43:36.320Z,58.70
2022-09-01T03:46:06.441Z,45.88
2022-09-01T03:48:36.989Z,50.35
2022-09-01T03:51:07.242Z,43.30
2022-09-01T03:53:47.136Z,44.17
2022-09-01T03:56:17.049Z,36.33
2022-09-01T03:58:48.024Z,31.38
2022-09-01T04:01:21.790Z,40.35
2022-09-01T04:03:53.396Z,46.60
2022-09-01T04:06:27.218Z,39.60
2022-09-01T04:08:58.461Z,34.53
2022-09-01T04:11:27.919Z,32.30
2022-09-01T04:13:57.797Z,34.47
2022-09-01T04:16:51.041Z,32.97
2022-09-01T04:19:29.246Z,44.13
2022-09-01T04:22:01.705Z,32.63
2022-09-01T04:24:51.252Z,42.65
2022-09-01T04:27:22.902Z,27.17
2022-09-01T04:29:57.433Z,49.42
2022-09-01T04:32:30.482Z,33.50
2022-09-01T04:35:03.416Z,29.02
2022-09-01T04:37:37.654Z,41.60
2022-09-01T04:40:09.711Z,30.80
2022-09-01T04:42:39.207Z,29.52
2022-09-01T04:45:12.017Z,24.80
2022-09-01T04:47:44.228Z,25.95
2022-09-01T04:50:18.431Z,32.17
2022-09-01T04:53:07.376Z,25.60
2022-09-01T04:55:47.130Z,21.27
2022-09-01T04:58:23.664Z,26.08
2022-09-01T05:00:53.187Z,45.63
2022-09-01T05:03:25.361Z,22.13
2022-09-01T05:06:20.193Z,24.83
2022-09-01T05:08:59.406Z,25.17
2022-09-01T05:11:48.128Z,43.40
2022-09-01T05:14:26.837Z,38.90
2022-09-01T05:17:02.861Z,43.20
2022-09-01T05:19:33.045Z,26.17
2022-09-01T05:22:02.937Z,36.70
2022-09-01T05:24:41.259Z,25.52
2022-09-01T05:27:13.346Z,32.40
2022-09-01T05:29:48.126Z,28.10
2022-09-01T05:32:17.412Z,30.08
2022-09-01T05:34:47.248Z,27.05
2022-09-01T05:37:18.258Z,27.67
2022-09-01T05:39:47.479Z,30.23
2022-09-01T05:42:16.577Z,15.90
2022-09-01T05:44:46.140Z,21.13
2022-09-01T05:47:21.016Z,25.00
2022-09-01T05:49:54.738Z,19.45
2022-09-01T05:52:26.083Z,25.93
2022-09-01T05:54:57.899Z,44.20
2022-09-01T06:00:13.394Z,18.05
2022-09-01T06:02:46.119Z,23.13
2022-09-01T06:05:20.253Z,22.05
2022-09-01T06:07:52.018Z,24.45
2022-09-01T06:10:22.557Z,24.98
2022-09-01T06:12:54.865Z,22.00
2022-09-01T06:15:26.124Z,23.30
2022-09-01T06:17:57.371Z,30.10
2022-09-01T06:20:27.605Z,23.42
2022-09-01T06:22:59.218Z,17.95
2022-09-01T06:25:31.533Z,28.90
2022-09-01T06:28:05.964Z,17.25
2022-09-01T06:30:37.550Z,30.75
2022-09-01T06:33:13.493Z,21.58
2022-09-01T06:38:35.250Z,36.75
2022-09-01T06:41:13.963Z,25.75
2022-09-01T06:46:30.493Z,20.50
2022-09-01T06:49:24.651Z,23.15
2022-09-01T06:51:53.973Z,30.77
2022-09-01T06:54:26.787Z,27.23
2022-09-01T06:56:56.583Z,38.78
2022-09-01T06:59:34.828Z,23.77
2022-09-01T07:02:07.642Z,27.13
2022-09-01T07:05:04.019Z,27.90
2022-09-01T07:16:52.041Z,34.30
2022-09-01T07:25:16.802Z,40.42
2022-09-01T07:28:09.348Z,26.42
2022-09-01T07:30:48.614Z,36.60
2022-09-01T07:36:26.808Z,24.73
2022-09-01T07:45:29.204Z,36.25
2022-09-01T07:48:04.504Z,35.88
2022-09-01T07:51:07.580Z,30.05
2022-09-01T07:53:35.348Z,44.03
2022-09-01T07:56:11.409Z,43.20
2022-09-01T07:58:46.453Z,51.03
2022-09-01T08:01:22.128Z,44.53
2022-09-01T08:03:55.319Z,54.88
2022-09-01T08:06:28.090Z,54.50
2022-09-01T08:09:01.748Z,50.45
2022-09-01T08:12:00.487Z,55.65
2022-09-01T08:14:24.862Z,44.30
2022-09-01T08:16:55.321Z,40.33
2022-09-01T08:19:24.893Z,35.47
2022-09-01T08:22:10.667Z,56.10
2022-09-01T08:24:53.643Z,51.42
2022-09-01T08:27:23.818Z,46.28
2022-09-01T08:29:52.862Z,39.28
2022-09-01T08:32:23.685Z,51.75
2022-09-01T08:34:53.164Z,56.45
2022-09-01T08:37:22.571Z,45.97
2022-09-01T08:39:51.950Z,44.38
2022-09-01T08:42:36.207Z,57.65
2022-09-01T08:45:31.637Z,51.45
2022-09-01T08:51:17.191Z,25.05
2022-09-01T08:54:18.523Z,26.67
2022-09-01T08:57:22.246Z,28.67
2022-09-01T09:00:13.676Z,27.00
2022-09-01T09:03:14.639Z,25.00
2022-09-01T09:05:58.819Z,32.60
2022-09-01T09:08:52.469Z,19.63
2022-09-01T09:11:41.395Z,16.48
2022-09-01T09:14:29.085Z,16.00
2022-09-01T09:16:59.303Z,20.92
2022-09-01T09:19:28.718Z,21.45
2022-09-01T09:22:01.027Z,26.98
2022-09-01T09:27:30.784Z,27.63
2022-09-01T09:30:11.736Z,27.35
2022-09-01T09:33:44.338Z,27.90
2022-09-01T09:36:22.194Z,30.08
2022-09-01T09:39:08.457Z,29.30
2022-09-01T09:41:39.851Z,33.42
2022-09-01T09:44:32.906Z,27.60
2022-09-01T09:47:10.245Z,29.77
2022-09-01T09:49:48.878Z,34.38
2022-09-01T09:52:20.291Z,24.98
2022-09-01T09:55:25.271Z,39.53
2022-09-01T09:58:13.087Z,26.40
2022-09-01T10:01:01.978Z,32.05
2022-09-01T10:03:45.021Z,27.70
2022-09-01T10:06:33.211Z,27.13
2022-09-01T10:09:09.427Z,29.63
2022-09-01T10:11:45.372Z,25.00
2022-09-01T10:14:53.389Z,24.58
2022-09-01T10:17:30.829Z,24.15
2022-09-01T10:20:07.656Z,28.33
2022-09-01T10:22:42.624Z,25.67
2022-09-01T10:25:22.171Z,26.65
2022-09-01T10:27:59.261Z,29.25
2022-09-01T10:30:30.571Z,21.38
2022-09-01T10:33:10.996Z,25.27
2022-09-01T10:35:49.481Z,31.15
2022-09-01T10:38:21.586Z,25.20
2022-09-01T10:41:09.014Z,34.63
2022-09-01T10:43:46.588Z,23.52
2022-09-01T10:49:03.118Z,39.05
2022-09-01T10:51:38.856Z,26.48
2022-09-01T10:54:08.864Z,32.38
2022-09-01T10:56:51.339Z,31.45
2022-09-01T10:59:35.617Z,34.22
2022-09-01T11:02:23.500Z,42.15
2022-09-01T11:05:00.830Z,37.90
2022-09-01T11:10:34.451Z,34.25
2022-09-01T11:13:50.335Z,45.55
2022-09-01T11:16:48.136Z,45.22
2022-09-01T11:19:40.343Z,38.38
2022-09-01T11:22:26.715Z,37.03
2022-09-01T11:25:39.743Z,60.55
2022-09-01T11:28:33.655Z,40.13
2022-09-01T11:31:09.564Z,52.63
2022-09-01T11:33:57.000Z,36.00
2022-09-01T11:36:37.413Z,70.90
2022-09-01T11:39:16.417Z,42.83
2022-09-01T11:42:20.265Z,40.80
2022-09-01T11:45:06.683Z,28.25
2022-09-01T11:47:46.453Z,33.47
2022-09-01T11:50:28.758Z,36.00
2022-09-01T11:53:11.805Z,47.75
2022-09-01T11:55:44.294Z,43.85
2022-09-01T11:58:30.166Z,43.08
2022-09-01T12:01:23.165Z,31.38
2022-09-01T12:03:54.142Z,31.75
2022-09-01T12:06:27.352Z,25.92
2022-09-01T12:09:03.160Z,29.90
2022-09-01T12:11:42.961Z,39.50
2022-09-01T12:14:13.465Z,24.25
2022-09-01T12:16:43.965Z,22.08
2022-09-01T12:19:26.486Z,28.17
2022-09-01T12:22:21.103Z,25.63
2022-09-01T12:24:54.657Z,47.35
2022-09-01T12:27:24.362Z,31.73
2022-09-01T12:29:53.844Z,17.15
2022-09-01T12:32:23.365Z,35.17
2022-09-01T12:35:16.123Z,19.30
2022-09-01T12:37:45.364Z,15.32
2022-09-01T12:40:26.777Z,19.88
2022-09-01T12:42:57.175Z,29.40
2022-09-01T12:45:49.070Z,23.65
2022-09-01T12:48:33.412Z,26.20
2022-09-01T12:51:18.325Z,13.98
2022-09-01T12:54:04.770Z,24.02
2022-09-01T12:56:37.445Z,23.60
2022-09-01T12:59:25.243Z,21.33
2022-09-01T13:02:28.386Z,22.08
2022-09-01T13:05:20.262Z,31.65
2022-09-01T13:07:49.518Z,23.07
2022-09-01T13:10:18.592Z,29.00
2022-09-01T13:12:48.193Z,19.58
2022-09-01T13:15:17.282Z,24.27
2022-09-01T13:17:46.994Z,25.83
2022-09-01T13:20:16.448Z,20.02
2022-09-01T13:22:46.140Z,19.77
2022-09-01T13:25:21.901Z,17.50
2022-09-01T13:27:54.033Z,81.82
2022-09-01T13:30:26.681Z,35.60
2022-09-01T13:35:45.824Z,26.48
2022-09-01T13:38:17.180Z,27.02
2022-09-01T13:40:48.131Z,27.10
2022-09-01T13:43:20.493Z,17.60
2022-09-01T13:49:04.501Z,18.63
2022-09-01T13:51:38.237Z,24.58
2022-09-01T13:54:08.209Z,26.33
2022-09-01T13:56:38.506Z,31.30
2022-09-01T13:59:08.327Z,26.58
2022-09-01T14:01:37.720Z,29.50
2022-09-01T14:04:07.139Z,30.67
2022-09-01T14:06:42.011Z,32.13
2022-09-01T14:09:15.676Z,31.23
2022-09-01T14:11:46.944Z,43.40
2022-09-01T14:14:16.098Z,29.05
2022-09-01T14:16:47.474Z,22.20
2022-09-01T14:19:16.818Z,25.70
2022-09-01T14:21:46.268Z,20.67
2022-09-01T14:24:19.998Z,41.53
2022-09-01T14:26:49.691Z,33.40
2022-09-01T14:29:18.968Z,35.40
2022-09-01T14:31:47.885Z,31.17
2022-09-01T14:34:17.494Z,27.92
2022-09-01T14:36:46.558Z,22.73
2022-09-01T14:39:15.901Z,31.88
2022-09-01T14:41:45.037Z,40.50
2022-09-01T14:44:14.371Z,31.00
2022-09-01T14:46:44.621Z,35.05
2022-09-01T14:49:13.726Z,24.77
2022-09-01T14:54:32.901Z,27.60
2022-09-01T14:59:53.263Z,32.00
2022-09-01T15:02:23.068Z,26.70
2022-09-01T15:04:52.917Z,36.58
2022-09-01T15:07:22.134Z,29.67
2022-09-01T15:09:51.411Z,33.03
2022-09-01T15:12:21.067Z,28.23
2022-09-01T15:14:50.202Z,30.45
2022-09-01T15:17:20.234Z,26.30
2022-09-01T15:19:49.205Z,42.30
2022-09-01T15:22:18.145Z,29.20
2022-09-01T15:24:47.586Z,40.35
2022-09-01T15:27:16.608Z,25.63
2022-09-01T15:29:50.108Z,27.00
2022-09-01T15:32:28.058Z,34.58
2022-09-01T15:34:57.816Z,39.85
2022-09-01T15:37:27.005Z,24.17
2022-09-01T15:39:56.394Z,27.40
2022-09-01T15:42:25.426Z,40.70
2022-09-01T15:44:54.808Z,26.23
2022-09-01T15:47:23.864Z,34.35
2022-09-01T15:49:53.098Z,44.20
2022-09-01T15:52:22.203Z,42.00
2022-09-01T15:54:51.201Z,34.00
2022-09-01T15:57:20.425Z,29.17
2022-09-01T15:59:50.058Z,39.50
2022-09-01T16:02:22.117Z,27.75
2022-09-01T16:04:51.213Z,40.55
2022-09-01T16:07:20.638Z,34.83
2022-09-01T16:09:49.666Z,32.72
2022-09-01T16:12:22.245Z,42.90
2022-09-01T16:14:52.591Z,35.17
2022-09-01T16:17:52.926Z,29.35
2022-09-01T16:20:29.932Z,27.83
2022-09-01T16:23:22.856Z,38.10
2022-09-01T16:25:54.145Z,27.38
2022-09-01T16:28:33.049Z,25.60
2022-09-01T16:31:14.928Z,31.48
2022-09-01T16:33:51.968Z,33.85
2022-09-01T16:36:29.996Z,31.50
2022-09-01T16:39:27.048Z,40.03
2022-09-01T16:42:39.329Z,22.98
2022-09-01T16:45:17.237Z,44.00
2022-09-01T16:47:55.411Z,28.45
2022-09-01T16:50:55.401Z,26.10
2022-09-01T16:53:33.381Z,37.58
2022-09-01T16:56:29.220Z,30.38
2022-09-01T17:01:58.360Z,26.33
2022-09-01T17:05:02.849Z,31.42
2022-09-01T17:07:41.167Z,30.67
2022-09-01T17:10:25.890Z,38.45
2022-09-01T17:12:57.358Z,33.85
2022-09-01T17:15:42.054Z,36.20
2022-09-01T17:18:23.321Z,39.80
2022-09-01T17:21:10.165Z,40.08
2022-09-01T17:23:47.383Z,41.00
2022-09-01T17:26:25.184Z,44.25
2022-09-01T17:28:59.532Z,47.00
2022-09-01T17:31:45.460Z,43.40
2022-09-01T17:34:42.935Z,38.72
2022-09-01T17:37:29.153Z,31.55
2022-09-01T17:40:06.994Z,26.25
2022-09-01T17:42:45.043Z,38.72
2022-09-01T17:45:46.643Z,40.17
2022-09-01T17:48:28.124Z,32.72
2022-09-01T17:51:22.328Z,37.45
2022-09-01T17:54:02.914Z,27.42
2022-09-01T17:56:55.658Z,40.42
2022-09-01T17:59:36.610Z,43.63
2022-09-01T18:02:20.886Z,41.17
2022-09-01T18:05:07.803Z,39.13
2022-09-01T18:07:55.598Z,33.58
2022-09-01T18:10:30.745Z,28.05
2022-09-01T18:13:06.095Z,31.02
2022-09-01T18:16:04.265Z,45.45
2022-09-01T18:18:42.791Z,40.13
2022-09-01T18:21:18.079Z,37.90
2022-09-01T18:23:50.504Z,40.40
2022-09-01T18:29:05.898Z,41.05
2022-09-01T18:31:53.134Z,52.05
2022-09-01T18:34:37.925Z,38.33
2022-09-01T18:37:38.443Z,31.63
2022-09-01T18:40:13.532Z,49.47
2022-09-01T18:42:42.731Z,63.97
2022-09-01T18:45:36.838Z,107.70
2022-09-01T18:48:26.933Z,42.13
2022-09-01T18:51:32.542Z,39.08
2022-09-01T18:54:16.231Z,39.60
2022-09-01T18:57:07.250Z,41.83
2022-09-01T18:59:45.246Z,45.03
2022-09-01T19:02:32.534Z,42.42
2022-09-01T19:05:28.957Z,37.47
2022-09-01T19:08:17.531Z,54.58
2022-09-01T19:11:04.774Z,36.88
2022-09-01T19:13:55.221Z,44.45
2022-09-01T19:16:49.333Z,33.35
2022-09-01T19:19:44.629Z,49.75
2022-09-01T19:22:33.172Z,47.67
2022-09-01T19:25:25.039Z,43.15
2022-09-01T19:28:08.387Z,43.55
2022-09-01T19:30:43.978Z,28.98
2022-09-01T19:33:18.043Z,39.25
2022-09-01T19:35:49.135Z,44.05
2022-09-01T19:38:28.804Z,37.72
2022-09-01T19:41:11.369Z,43.03
2022-09-01T19:46:28.205Z,50.58
2022-09-01T19:49:27.856Z,46.97
2022-09-01T19:51:59.953Z,39.63
2022-09-01T19:54:45.976Z,38.85
2022-09-01T19:57:29.784Z,42.70
2022-09-01T20:00:17.288Z,43.50
2022-09-01T20:03:09.765Z,48.42
2022-09-01T20:06:05.629Z,46.58
2022-09-01T20:08:55.084Z,42.65
2022-09-01T20:11:42.445Z,49.90
2022-09-01T20:14:37.395Z,44.08
2022-09-01T20:17:09.873Z,52.20
2022-09-01T20:19:47.996Z,45.60
2022-09-01T20:22:31.123Z,50.47
2022-09-01T20:25:14.233Z,39.10
2022-09-01T20:28:02.020Z,48.13
2022-09-01T20:30:41.017Z,52.47
2022-09-01T20:33:36.154Z,47.13
2022-09-01T20:36:24.649Z,49.00
2022-09-01T20:39:30.953Z,47.38
2022-09-01T20:42:34.365Z,44.05
2022-09-01T20:45:19.504Z,36.38
2022-09-01T20:48:00.550Z,53.20
2022-09-01T20:51:02.320Z,50.08
2022-09-01T20:54:05.336Z,46.72
2022-09-01T20:57:03.028Z,51.33
2022-09-01T20:59:59.111Z,46.30
2022-09-01T21:02:44.592Z,45.03
2022-09-01T21:05:24.233Z,50.03
2022-09-01T21:08:29.094Z,42.33
2022-09-01T21:11:32.043Z,50.58
2022-09-01T21:14:21.367Z,68.05
2022-09-01T21:16:59.539Z,47.42
2022-09-01T21:19:40.925Z,56.83
2022-09-01T21:22:15.703Z,56.72
2022-09-01T21:24:47.674Z,50.67
2022-09-01T21:27:34.435Z,46.28
2022-09-01T21:30:10.561Z,49.55
2022-09-01T21:32:40.937Z,43.42
2022-09-01T21:35:13.444Z,44.00
2022-09-01T21:37:42.789Z,38.63
2022-09-01T21:40:13.657Z,46.85
2022-09-01T21:42:57.110Z,50.40
2022-09-01T21:45:27.061Z,46.03
2022-09-01T21:47:56.900Z,41.92
2022-09-01T21:50:27.194Z,57.00
2022-09-01T21:52:56.298Z,47.15
2022-09-01T21:55:25.989Z,54.60
2022-09-01T21:57:56.596Z,45.67
2022-09-01T22:00:31.089Z,42.00
2022-09-01T22:03:02.830Z,49.90
2022-09-01T22:05:32.566Z,43.47
2022-09-01T22:08:02.707Z,43.50
2022-09-01T22:10:32.803Z,47.42
2022-09-01T22:13:04.780Z,43.13
2022-09-01T22:15:33.916Z,46.00
2022-09-01T22:18:03.181Z,51.17
2022-09-01T22:20:32.995Z,46.45
2022-09-01T22:23:03.084Z,67.35
2022-09-01T22:25:34.710Z,54.50
2022-09-01T22:28:06.718Z,44.50
2022-09-01T22:30:36.264Z,41.45
2022-09-01T22:33:08.736Z,39.38
2022-09-01T22:35:43.175Z,39.33
2022-09-01T22:38:12.866Z,42.97
2022-09-01T22:40:47.251Z,51.97
2022-09-01T22:43:19.345Z,44.28
2022-09-01T22:45:50.622Z,45.42
2022-09-01T22:48:22.377Z,44.45
2022-09-01T22:50:52.558Z,36.47
2022-09-01T22:53:23.127Z,42.38
2022-09-01T22:55:53.912Z,54.63
2022-09-01T22:58:22.961Z,62.05
2022-09-01T23:00:56.997Z,50.70
2022-09-01T23:03:26.326Z,50.17
2022-09-01T23:06:21.836Z,44.92
2022-09-01T23:09:03.066Z,48.55
2022-09-01T23:11:32.535Z,38.15
2022-09-01T23:14:01.791Z,42.15
2022-09-01T23:16:30.854Z,34.90
2022-09-01T23:19:00.404Z,38.00
2022-09-01T23:21:32.654Z,52.63
2022-09-01T23:26:32.980Z,48.42
2022-09-01T23:29:03.379Z,46.55
2022-09-01T23:31:35.696Z,49.15
2022-09-01T23:34:07.903Z,42.72
2022-09-01T23:36:38.484Z,42.35
2022-09-01T23:39:08.036Z,38.38
2022-09-01T23:41:39.469Z,40.83
2022-09-01T23:44:10.688Z,45.35
2022-09-01T23:46:43.943Z,39.30
2022-09-01T23:49:15.663Z,44.22
2022-09-01T23:51:46.912Z,33.45
2022-09-01T23:54:17.109Z,37.92
2022-09-01T23:56:47.176Z,36.65
2022-09-01T23:59:16.447Z,38.60
